Time;durP1;ratioP1;P1;durP2;ratioP2;P2;SDS_P1;SDS_P2;PMS_P1;PMS_P2;Temp;Humidity;BMP_temperature;BMP_pressure;BME280_temperature;BME280_humidity;BME280_pressure;Samples;Min_cycle;Max_cycle;Signal;HPM_P1;HPM_P2
2023/03/15 00:01:32;;;;;;;11.45;1.20;;;3.10;99.90;;;;;;4954213;28;20482;-81
2023/03/15 00:03:58;;;;;;;12.38;1.60;;;3.60;99.90;;;;;;4955345;28;20153;-81
2023/03/15 00:06:23;;;;;;;12.27;2.20;;;3.40;99.90;;;;;;4969301;28;20137;-81
2023/03/15 00:08:50;;;;;;;12.55;1.70;;;3.50;99.90;;;;;;4971084;28;20038;-81
2023/03/15 00:11:17;;;;;;;13.40;1.73;;;3.30;99.90;;;;;;4970746;28;20077;-81
2023/03/15 00:13:44;;;;;;;10.63;1.73;;;2.20;99.90;;;;;;4969854;28;20125;-81
2023/03/15 00:16:10;;;;;;;15.60;1.85;;;2.50;99.90;;;;;;4970915;28;20046;-81
2023/03/15 00:18:36;;;;;;;14.77;1.38;;;2.40;99.90;;;;;;4972184;28;20089;-80
2023/03/15 00:21:02;;;;;;;11.23;1.98;;;2.50;99.90;;;;;;4956340;28;20477;-81
2023/03/15 00:23:28;;;;;;;8.52;1.42;;;2.00;99.90;;;;;;4974483;28;20039;-82
2023/03/15 00:25:54;;;;;;;20.45;2.08;;;2.50;99.90;;;;;;4973779;28;20054;-81
2023/03/15 00:28:20;;;;;;;10.82;2.05;;;2.00;99.90;;;;;;4957476;28;20128;-81
2023/03/15 00:30:46;;;;;;;10.20;1.20;;;2.90;99.90;;;;;;4973543;28;20454;-81
2023/03/15 00:33:13;;;;;;;9.20;1.80;;;2.10;99.90;;;;;;4972990;28;20089;-81
2023/03/15 00:35:40;;;;;;;15.30;2.10;;;1.90;99.90;;;;;;4972809;28;20046;-81
2023/03/15 00:38:06;;;;;;;14.68;1.83;;;2.20;99.90;;;;;;4974030;28;20046;-81
2023/03/15 00:40:32;;;;;;;13.95;1.83;;;2.30;99.90;;;;;;4972900;28;20399;-81
2023/03/15 00:42:58;;;;;;;11.48;2.17;;;2.10;99.90;;;;;;4973463;28;20058;-81
2023/03/15 00:45:24;;;;;;;13.23;2.08;;;2.50;99.90;;;;;;4957730;28;20140;-81
2023/03/15 00:47:51;;;;;;;11.80;1.42;;;1.90;99.90;;;;;;4972526;28;20398;-81
2023/03/15 00:50:17;;;;;;;15.88;1.60;;;1.70;99.90;;;;;;4973148;28;20035;-81
2023/03/15 00:52:43;;;;;;;11.27;1.90;;;1.80;99.90;;;;;;4957373;28;20054;-81
2023/03/15 00:55:12;;;;;;;13.75;1.80;;;1.80;99.90;;;;;;4971986;28;20165;-81
2023/03/15 00:57:40;;;;;;;15.68;1.98;;;1.80;99.90;;;;;;4957291;28;20401;-81
2023/03/15 01:00:09;;;;;;;13.55;1.80;;;2.20;99.90;;;;;;4956488;28;20068;-81
2023/03/15 01:02:36;;;;;;;9.20;1.80;;;1.90;99.90;;;;;;4972656;28;20064;-81
2023/03/15 01:05:05;;;;;;;9.10;1.30;;;2.30;99.90;;;;;;4971911;28;20514;-81
2023/03/15 01:07:32;;;;;;;8.43;1.48;;;2.10;99.90;;;;;;4973627;28;20046;-81
2023/03/15 01:10:00;;;;;;;12.48;1.35;;;2.30;99.90;;;;;;4955929;28;20096;-81
2023/03/15 01:12:26;;;;;;;18.58;1.80;;;2.20;99.90;;;;;;4973520;28;20046;-81
2023/03/15 01:14:52;;;;;;;14.32;1.88;;;2.40;99.90;;;;;;4972520;28;20050;-80
2023/03/15 01:17:18;;;;;;;8.88;1.50;;;3.10;99.90;;;;;;4972469;28;20061;-81
2023/03/15 01:19:43;;;;;;;7.32;1.15;;;2.30;99.90;;;;;;4973273;28;20057;-81
2023/03/15 01:22:09;;;;;;;9.23;1.20;;;2.70;99.90;;;;;;4955507;28;20054;-81
2023/03/15 01:24:35;;;;;;;9.07;1.17;;;2.00;99.90;;;;;;4956207;28;20603;-81
2023/03/15 01:27:00;;;;;;;10.02;1.10;;;3.20;99.90;;;;;;4972480;28;20053;-81
2023/03/15 01:29:26;;;;;;;12.27;1.60;;;2.70;99.90;;;;;;4971697;28;20042;-81
2023/03/15 01:31:52;;;;;;;11.75;1.42;;;1.90;99.90;;;;;;4972346;28;20093;-81
2023/03/15 01:34:17;;;;;;;17.42;1.52;;;1.80;99.90;;;;;;4956200;28;20039;-81
2023/03/15 01:36:43;;;;;;;18.55;1.98;;;2.50;99.90;;;;;;4971159;28;20112;-81
2023/03/15 01:39:10;;;;;;;8.55;1.38;;;1.80;99.90;;;;;;4972482;28;20069;-81
2023/03/15 01:41:36;;;;;;;9.95;1.50;;;1.90;99.90;;;;;;4956391;28;20058;-81
2023/03/15 01:44:02;;;;;;;13.25;1.52;;;2.10;99.90;;;;;;4955990;28;20054;-81
2023/03/15 01:46:33;;;;;;;10.90;1.23;;;2.90;99.90;;;;;;4972396;28;20042;-81
2023/03/15 01:49:01;;;;;;;10.43;1.33;;;1.70;99.90;;;;;;4973009;28;20043;-81
2023/03/15 01:51:44;;;;;;;9.80;1.60;;;1.70;99.90;;;;;;4971525;28;20050;-81
2023/03/15 01:54:14;;;;;;;11.95;1.38;;;1.70;99.90;;;;;;4972603;28;20054;-81
2023/03/15 01:56:44;;;;;;;14.73;2.22;;;1.60;99.90;;;;;;4956433;28;20046;-81
2023/03/15 01:59:15;;;;;;;10.07;1.48;;;1.60;99.90;;;;;;4955936;28;20038;-81
2023/03/15 02:01:44;;;;;;;11.23;1.48;;;2.20;99.90;;;;;;4955735;28;20410;-81
2023/03/15 02:04:15;;;;;;;14.20;1.70;;;1.60;99.90;;;;;;4956411;28;20042;-81
2023/03/15 02:06:45;;;;;;;18.60;1.90;;;2.60;99.90;;;;;;4954213;28;20050;-81
2023/03/15 02:09:15;;;;;;;15.52;1.55;;;2.20;99.90;;;;;;4966915;28;20074;-81
2023/03/15 02:11:41;;;;;;;13.55;1.60;;;2.50;99.90;;;;;;4951527;28;20046;-81
2023/03/15 02:14:11;;;;;;;14.88;2.00;;;2.10;99.90;;;;;;4953152;28;20145;-81
2023/03/15 02:16:37;;;;;;;13.35;1.80;;;2.20;99.90;;;;;;4952865;28;20782;-81
2023/03/15 02:19:05;;;;;;;13.02;1.58;;;1.50;99.90;;;;;;4952261;28;20125;-81
2023/03/15 02:21:55;;;;;;;16.65;1.60;;;1.70;99.90;;;;;;4935797;28;20090;-81
2023/03/15 02:24:27;;;;;;;15.02;1.65;;;1.50;99.90;;;;;;4952686;28;20051;-81
2023/03/15 02:26:55;;;;;;;13.07;1.58;;;1.50;99.90;;;;;;4951406;28;20097;-81
2023/03/15 02:29:24;;;;;;;10.23;1.92;;;2.20;99.90;;;;;;4952730;28;20129;-81
2023/03/15 02:31:51;;;;;;;13.93;1.98;;;2.30;99.90;;;;;;4951906;28;20051;-80
2023/03/15 02:34:17;;;;;;;19.75;2.08;;;2.00;99.90;;;;;;4935730;28;20057;-81
2023/03/15 02:36:42;;;;;;;9.63;1.30;;;1.50;99.90;;;;;;4951490;28;20129;-81
2023/03/15 02:39:14;;;;;;;14.98;1.65;;;1.50;99.90;;;;;;4952226;28;20125;-81
2023/03/15 02:41:43;;;;;;;13.63;1.77;;;2.10;99.90;;;;;;4951237;28;20082;-81
2023/03/15 02:44:13;;;;;;;18.60;2.25;;;2.20;99.90;;;;;;4936749;28;20490;-81
2023/03/15 02:46:39;;;;;;;12.75;1.92;;;2.20;99.90;;;;;;4935742;28;20050;-81
2023/03/15 02:49:07;;;;;;;21.88;2.70;;;2.30;99.90;;;;;;4952391;28;20078;-80
2023/03/15 02:51:33;;;;;;;12.27;1.95;;;2.00;99.90;;;;;;4935920;28;20070;-81
2023/03/15 02:53:59;;;;;;;13.27;1.80;;;2.00;99.90;;;;;;4951843;28;20051;-81
2023/03/15 02:56:25;;;;;;;17.23;2.10;;;2.20;99.90;;;;;;4936255;28;20461;-81
2023/03/15 02:58:51;;;;;;;13.50;1.65;;;1.90;99.90;;;;;;4951979;28;20050;-81
2023/03/15 03:01:18;;;;;;;13.63;1.70;;;1.70;99.90;;;;;;4935542;28;20109;-81
2023/03/15 03:03:45;;;;;;;18.75;2.67;;;2.00;99.90;;;;;;4945604;28;20054;-81
2023/03/15 03:06:12;;;;;;;9.35;1.30;;;2.40;99.90;;;;;;4954626;28;20486;-80
2023/03/15 03:08:38;;;;;;;12.55;1.95;;;2.50;99.90;;;;;;4970646;28;20046;-81
2023/03/15 03:11:04;;;;;;;17.67;2.08;;;1.40;99.90;;;;;;4970939;28;20054;-81
2023/03/15 03:13:30;;;;;;;12.43;1.63;;;1.30;99.90;;;;;;4971719;28;20129;-81
2023/03/15 03:16:02;;;;;;;10.10;1.90;;;1.60;99.90;;;;;;4970123;28;20129;-81
2023/03/15 03:18:29;;;;;;;17.30;1.52;;;2.00;99.90;;;;;;4971995;28;20121;-81
2023/03/15 03:20:56;;;;;;;12.20;1.50;;;2.30;99.90;;;;;;4954004;28;20510;-81
2023/03/15 03:23:24;;;;;;;11.07;1.98;;;1.60;99.90;;;;;;4970767;28;20129;-80
2023/03/15 03:25:52;;;;;;;11.65;1.52;;;1.30;99.90;;;;;;4954996;28;20069;-80
2023/03/15 03:28:19;;;;;;;11.43;1.55;;;2.20;99.90;;;;;;4971426;28;20054;-81
2023/03/15 03:30:45;;;;;;;9.50;1.42;;;2.10;99.90;;;;;;4954351;28;20070;-80
2023/03/15 03:33:11;;;;;;;14.93;1.98;;;2.30;99.90;;;;;;4970474;28;20054;-81
2023/03/15 03:35:36;;;;;;;15.80;1.63;;;2.40;99.90;;;;;;4970128;28;20046;-81
2023/03/15 03:38:02;;;;;;;12.57;2.03;;;2.00;99.90;;;;;;4969747;28;20049;-81
2023/03/15 03:40:27;;;;;;;12.18;1.77;;;1.60;99.90;;;;;;4955122;28;20084;-81
2023/03/15 03:42:53;;;;;;;11.05;1.38;;;2.20;99.90;;;;;;4970658;28;20406;-81
2023/03/15 03:45:19;;;;;;;14.15;1.45;;;1.50;99.90;;;;;;4970305;28;20402;-81
2023/03/15 03:47:44;;;;;;;19.10;2.22;;;1.40;99.90;;;;;;4955160;28;20516;-81
2023/03/15 03:50:11;;;;;;;17.50;1.92;;;1.70;99.90;;;;;;4969216;28;20137;-81
2023/03/15 03:52:36;;;;;;;6.82;0.98;;;1.40;99.90;;;;;;4971246;28;20057;-81
2023/03/15 03:55:02;;;;;;;8.30;1.35;;;2.20;99.90;;;;;;4958924;28;20042;-81
2023/03/15 03:57:28;;;;;;;10.45;1.50;;;1.30;99.90;;;;;;4973992;28;20483;-81
2023/03/15 03:59:54;;;;;;;11.25;1.52;;;1.30;99.90;;;;;;4974674;28;20046;-81
2023/03/15 04:02:20;;;;;;;9.68;1.02;;;2.20;99.90;;;;;;4974157;28;20043;-81
2023/03/15 04:04:49;;;;;;;8.98;1.27;;;1.30;99.90;;;;;;4958210;28;20042;-81
2023/03/15 04:07:15;;;;;;;14.18;2.22;;;1.90;99.90;;;;;;4974526;28;20078;-81
2023/03/15 04:09:40;;;;;;;10.75;1.38;;;1.80;99.90;;;;;;4948934;28;20093;-81
2023/03/15 04:12:06;;;;;;;10.15;0.98;;;2.00;99.90;;;;;;4954465;28;20407;-81
2023/03/15 04:14:32;;;;;;;6.60;1.42;;;1.20;99.90;;;;;;4954934;28;20047;-81
2023/03/15 04:16:58;;;;;;;12.18;1.65;;;2.10;99.90;;;;;;4955502;28;20051;-81
2023/03/15 04:19:24;;;;;;;9.73;1.13;;;1.60;99.90;;;;;;4954483;28;20398;-82
2023/03/15 04:21:51;;;;;;;11.40;1.23;;;1.10;99.90;;;;;;4938133;28;20042;-81
2023/03/15 04:24:17;;;;;;;9.85;1.20;;;1.80;99.90;;;;;;4939418;28;20441;-81
2023/03/15 04:26:42;;;;;;;12.00;1.40;;;1.50;99.90;;;;;;4953560;28;20101;-81
2023/03/15 04:29:10;;;;;;;10.55;1.63;;;1.10;99.90;;;;;;4938973;28;20094;-80
2023/03/15 04:31:37;;;;;;;7.45;1.30;;;1.70;99.90;;;;;;4938061;28;20086;-81
2023/03/15 04:34:04;;;;;;;9.73;1.33;;;1.10;99.90;;;;;;4954039;28;20130;-81
2023/03/15 04:36:30;;;;;;;8.73;1.17;;;1.00;99.90;;;;;;4938039;28;20133;-81
2023/03/15 04:39:04;;;;;;;8.18;1.15;;;1.10;99.90;;;;;;4954622;28;20133;-81
2023/03/15 04:41:31;;;;;;;9.52;1.30;;;1.20;99.90;;;;;;4953465;28;20069;-82
2023/03/15 04:43:56;;;;;;;12.75;1.10;;;2.00;99.90;;;;;;4938268;28;20134;-81
2023/03/15 04:46:22;;;;;;;7.75;1.20;;;1.40;99.90;;;;;;4953426;28;20137;-81
2023/03/15 04:48:48;;;;;;;9.48;1.10;;;0.80;99.90;;;;;;4953719;28;20105;-81
2023/03/15 04:51:13;;;;;;;8.02;0.93;;;1.20;99.90;;;;;;4953439;28;20061;-81
2023/03/15 04:53:39;;;;;;;6.82;0.95;;;0.80;99.90;;;;;;4937430;28;20135;-80
2023/03/15 04:56:05;;;;;;;9.77;0.90;;;0.40;99.90;;;;;;4953834;28;20047;-82
2023/03/15 04:58:31;;;;;;;5.47;0.75;;;0.30;99.90;;;;;;4938478;28;20053;-82
2023/03/15 05:00:57;;;;;;;5.40;0.95;;;1.00;99.90;;;;;;4953457;28;20047;-83
2023/03/15 05:03:22;;;;;;;5.57;0.80;;;1.00;99.90;;;;;;4954079;28;20451;-80
2023/03/15 05:05:48;;;;;;;8.52;1.13;;;0.40;99.90;;;;;;4952769;28;20047;-81
2023/03/15 05:08:14;;;;;;;5.32;0.75;;;0.60;99.90;;;;;;4937154;28;20509;-81
2023/03/15 05:10:39;;;;;;;3.47;0.90;;;0.50;99.90;;;;;;4953784;28;20046;-81
2023/03/15 05:13:05;;;;;;;6.25;0.70;;;-0.20;99.90;;;;;;4937911;28;20098;-81
2023/03/15 05:15:31;;;;;;;7.50;1.17;;;-0.20;99.90;;;;;;4953230;28;20469;-81
2023/03/15 05:17:57;;;;;;;14.60;1.20;;;0.40;99.90;;;;;;4953740;28;20097;-80
2023/03/15 05:20:24;;;;;;;5.40;0.70;;;-0.30;99.90;;;;;;4952654;28;20070;-80
2023/03/15 05:22:52;;;;;;;6.07;1.10;;;0.80;99.90;;;;;;4952792;28;20097;-81
2023/03/15 05:25:17;;;;;;;10.50;0.90;;;0.50;99.90;;;;;;4953232;28;20042;-80
2023/03/15 05:27:45;;;;;;;7.28;0.90;;;-0.30;99.90;;;;;;4952756;28;20513;-81
2023/03/15 05:30:13;;;;;;;8.32;0.82;;;0.40;99.90;;;;;;4936024;28;20050;-81
2023/03/15 05:32:43;;;;;;;8.73;1.30;;;-0.40;99.90;;;;;;4953268;28;20078;-81
2023/03/15 05:35:10;;;;;;;9.13;0.93;;;0.10;99.90;;;;;;4951436;28;20086;-80
2023/03/15 05:37:36;;;;;;;3.70;1.15;;;-0.30;99.90;;;;;;4952350;28;20051;-80
2023/03/15 05:40:06;;;;;;;8.15;1.17;;;-0.50;99.90;;;;;;4969497;28;20199;-80
2023/03/15 05:42:33;;;;;;;10.18;1.38;;;-0.50;99.90;;;;;;4949817;28;20054;-80
2023/03/15 05:44:59;;;;;;;7.05;1.00;;;-0.40;99.90;;;;;;4986876;28;20042;-80
2023/03/15 05:47:24;;;;;;;3.85;0.82;;;-0.10;99.90;;;;;;4945838;28;20042;-81
2023/03/15 05:49:51;;;;;;;6.75;1.30;;;0.40;99.90;;;;;;4960634;28;20150;-80
2023/03/15 05:52:16;;;;;;;9.02;1.42;;;0.40;99.90;;;;;;4936237;28;20053;-80
2023/03/15 05:54:42;;;;;;;8.52;1.30;;;-0.50;99.90;;;;;;4952792;28;20035;-80
2023/03/15 05:57:08;;;;;;;7.85;1.00;;;-0.20;99.90;;;;;;4951534;28;20109;-80
2023/03/15 05:59:34;;;;;;;8.07;1.52;;;-0.30;99.90;;;;;;4952841;28;20506;-80
2023/03/15 06:02:00;;;;;;;6.10;1.20;;;0.60;99.90;;;;;;4973196;28;20086;-80
2023/03/15 06:04:26;;;;;;;11.90;2.00;;;0.00;99.90;;;;;;4980081;28;20050;-82
2023/03/15 06:06:52;;;;;;;6.75;1.20;;;0.10;99.90;;;;;;4960239;28;20046;-82
2023/03/15 06:09:18;;;;;;;9.93;1.65;;;0.20;99.90;;;;;;4960487;28;20043;-82
2023/03/15 06:11:43;;;;;;;14.70;2.28;;;0.30;99.90;;;;;;4961098;28;20046;-82
2023/03/15 06:14:09;;;;;;;11.43;1.60;;;0.30;99.90;;;;;;4962648;28;20035;-81
2023/03/15 06:16:35;;;;;;;11.93;2.15;;;0.30;99.90;;;;;;4967898;28;20160;-83
2023/03/15 06:19:00;;;;;;;12.43;1.60;;;0.80;99.90;;;;;;4971394;28;20402;-82
2023/03/15 06:21:26;;;;;;;12.15;2.00;;;0.40;99.90;;;;;;4970724;28;20054;-82
2023/03/15 06:23:52;;;;;;;16.35;1.88;;;0.40;99.90;;;;;;4971698;28;20053;-82
2023/03/15 06:26:18;;;;;;;9.60;1.35;;;0.40;99.90;;;;;;4971174;28;20042;-82
2023/03/15 06:28:44;;;;;;;18.80;3.03;;;0.40;99.90;;;;;;4971346;28;20046;-82
2023/03/15 06:31:12;;;;;;;10.27;1.58;;;1.30;99.90;;;;;;4971720;28;20501;-81
2023/03/15 06:33:38;;;;;;;13.75;1.73;;;0.80;99.90;;;;;;4954591;28;20073;-82
2023/03/15 06:36:04;;;;;;;9.68;1.70;;;0.50;99.90;;;;;;4986835;28;20046;-83
2023/03/15 06:38:31;;;;;;;15.75;2.25;;;0.50;99.90;;;;;;4955751;28;20042;-82
2023/03/15 06:41:00;;;;;;;13.60;1.90;;;0.50;99.90;;;;;;4987119;28;20560;-81
2023/03/15 06:43:27;;;;;;;10.27;1.65;;;0.60;99.90;;;;;;4955775;28;20050;-81
2023/03/15 06:45:54;;;;;;;9.20;1.60;;;0.60;99.90;;;;;;4970404;28;20073;-82
2023/03/15 06:48:20;;;;;;;7.15;1.20;;;1.40;99.90;;;;;;4971380;28;20502;-82
2023/03/15 06:50:46;;;;;;;16.00;1.70;;;2.00;99.90;;;;;;4986177;28;20074;-82
2023/03/15 06:53:13;;;;;;;16.20;2.03;;;1.20;99.90;;;;;;4970649;28;20085;-82
2023/03/15 06:55:39;;;;;;;14.15;1.92;;;0.70;99.90;;;;;;4970876;28;20110;-81
2023/03/15 06:58:05;;;;;;;14.50;1.80;;;0.70;99.90;;;;;;4955280;28;20138;-82
2023/03/15 07:00:30;;;;;;;8.15;1.88;;;1.70;99.90;;;;;;4970333;28;20133;-82
2023/03/15 07:02:56;;;;;;;12.80;2.40;;;0.70;99.90;;;;;;4954512;28;20050;-81
2023/03/15 07:05:22;;;;;;;12.80;1.50;;;1.40;99.90;;;;;;4970300;28;20138;-82
2023/03/15 07:07:48;;;;;;;7.40;1.70;;;0.80;99.90;;;;;;4970245;28;20129;-82
2023/03/15 07:10:13;;;;;;;9.80;1.63;;;0.80;99.90;;;;;;4956861;28;20055;-83
2023/03/15 07:12:39;;;;;;;13.30;1.50;;;2.10;99.90;;;;;;4951692;28;20066;-83
2023/03/15 07:15:05;;;;;;;14.68;1.75;;;0.90;99.90;;;;;;4950378;28;20047;-82
2023/03/15 07:17:31;;;;;;;10.00;2.10;;;1.00;99.90;;;;;;4936308;28;20550;-83
2023/03/15 07:19:57;;;;;;;8.90;1.65;;;1.10;99.90;;;;;;4950876;28;20054;-82
2023/03/15 07:22:23;;;;;;;9.32;2.10;;;1.10;99.90;;;;;;4950779;28;20051;-82
2023/03/15 07:24:48;;;;;;;11.27;1.90;;;1.60;99.90;;;;;;4951717;28;20046;-82
2023/03/15 07:27:14;;;;;;;13.57;1.80;;;2.10;99.90;;;;;;4935398;28;20090;-82
2023/03/15 07:29:40;;;;;;;13.05;1.92;;;2.00;99.90;;;;;;4954686;28;20058;-82
2023/03/15 07:32:06;;;;;;;13.60;1.75;;;1.40;99.90;;;;;;4939264;28;20050;-82
2023/03/15 07:34:32;;;;;;;13.77;1.95;;;1.50;99.90;;;;;;4960411;28;20564;-82
2023/03/15 07:36:57;;;;;;;8.55;1.85;;;2.70;99.90;;;;;;4973232;28;20050;-82
2023/03/15 07:39:25;;;;;;;14.60;1.70;;;2.80;99.90;;;;;;4974485;28;20078;-82
2023/03/15 07:41:51;;;;;;;10.27;1.75;;;2.80;99.90;;;;;;4974150;28;20053;-83
2023/03/15 07:44:17;;;;;;;13.05;2.63;;;3.00;99.90;;;;;;4973654;28;20104;-83
2023/03/15 07:46:43;;;;;;;22.00;2.55;;;2.90;99.90;;;;;;4958378;28;20038;-83
2023/03/15 07:49:10;;;;;;;10.93;2.17;;;2.00;99.90;;;;;;4973798;28;20494;-83
2023/03/15 07:51:35;;;;;;;19.10;2.70;;;2.90;99.90;;;;;;4957525;28;20050;-83
2023/03/15 07:54:01;;;;;;;16.73;2.42;;;2.20;99.90;;;;;;4974500;28;20057;-83
2023/03/15 07:56:27;;;;;;;16.20;2.00;;;2.70;99.90;;;;;;4957613;28;20050;-83
2023/03/15 07:58:52;;;;;;;20.98;2.38;;;2.30;99.90;;;;;;4974538;28;20049;-83
2023/03/15 08:01:18;;;;;;;11.55;2.45;;;2.50;99.90;;;;;;4958129;28;20050;-83
2023/03/15 08:03:44;;;;;;;10.10;2.10;;;2.50;99.90;;;;;;4973620;28;20046;-83
2023/03/15 08:06:10;;;;;;;13.23;2.13;;;3.10;99.90;;;;;;4973488;28;20517;-83
2023/03/15 08:08:36;;;;;;;14.48;2.53;;;2.70;99.90;;;;;;4956986;28;20035;-83
2023/03/15 08:11:04;;;;;;;17.02;2.17;;;3.40;99.90;;;;;;4954120;28;20039;-83
2023/03/15 08:13:29;;;;;;;16.05;2.38;;;2.90;99.90;;;;;;4955270;28;20050;-83
2023/03/15 08:15:55;;;;;;;15.40;2.03;;;3.00;99.90;;;;;;4943088;28;20053;-83
2023/03/15 08:18:21;;;;;;;11.93;1.73;;;3.10;99.90;;;;;;4946736;28;20047;-84
2023/03/15 08:20:46;;;;;;;16.83;2.72;;;3.60;99.90;;;;;;4944796;28;20050;-84
2023/03/15 08:23:15;;;;;;;15.13;2.08;;;3.40;99.90;;;;;;4948277;28;20054;-84
2023/03/15 08:25:42;;;;;;;17.30;3.00;;;4.00;99.90;;;;;;4946674;28;20149;-84
2023/03/15 08:28:09;;;;;;;21.70;2.75;;;3.50;99.90;;;;;;4962255;28;20039;-83
2023/03/15 08:30:35;;;;;;;20.77;2.58;;;3.90;99.90;;;;;;4963671;28;20647;-83
2023/03/15 08:33:00;;;;;;;15.20;2.03;;;3.60;99.90;;;;;;4962098;28;20071;-83
2023/03/15 08:35:26;;;;;;;11.10;1.52;;;3.70;99.90;;;;;;4963786;28;20145;-83
2023/03/15 08:37:52;;;;;;;13.18;2.03;;;3.70;99.90;;;;;;4944878;28;20410;-83
2023/03/15 08:40:25;;;;;;;10.90;1.77;;;3.80;99.90;;;;;;4962858;28;20035;-83
2023/03/15 08:42:52;;;;;;;14.50;2.90;;;3.80;99.90;;;;;;4980009;28;20492;-83
2023/03/15 08:45:18;;;;;;;8.85;1.70;;;3.90;99.90;;;;;;4962663;28;20042;-82
2023/03/15 08:47:44;;;;;;;10.75;1.77;;;4.00;99.90;;;;;;4962871;28;20134;-83
2023/03/15 08:50:12;;;;;;;11.48;1.35;;;4.50;99.90;;;;;;4944672;28;20154;-83
2023/03/15 08:52:38;;;;;;;9.05;1.63;;;4.10;99.90;;;;;;4978238;28;20045;-83
2023/03/15 08:55:05;;;;;;;13.73;2.08;;;4.50;99.90;;;;;;4958461;28;20402;-83
2023/03/15 08:57:31;;;;;;;8.98;1.85;;;4.20;99.90;;;;;;4962800;28;20079;-83
2023/03/15 09:00:00;;;;;;;9.25;1.52;;;4.30;99.90;;;;;;4976976;28;20053;-83
2023/03/15 09:02:27;;;;;;;9.45;1.92;;;5.20;99.90;;;;;;4963504;28;20185;-83
2023/03/15 09:04:53;;;;;;;8.75;1.80;;;4.50;99.90;;;;;;4945656;28;20486;-83
2023/03/15 09:07:19;;;;;;;11.80;1.30;;;4.50;99.90;;;;;;4960493;28;20081;-83
2023/03/15 09:09:47;;;;;;;12.48;1.50;;;4.80;99.90;;;;;;4948401;28;20406;-83
2023/03/15 09:12:15;;;;;;;10.60;1.73;;;4.60;99.90;;;;;;4949171;28;20314;-83
2023/03/15 09:14:40;;;;;;;7.20;1.48;;;4.70;99.90;;;;;;4960523;28;20034;-83
2023/03/15 09:17:07;;;;;;;10.23;1.65;;;4.80;99.90;;;;;;4966864;28;20054;-83
2023/03/15 09:19:32;;;;;;;12.52;1.42;;;4.80;99.90;;;;;;4973304;28;20030;-84
2023/03/15 09:21:58;;;;;;;11.13;2.30;;;4.90;99.90;;;;;;4971343;28;20072;-83
2023/03/15 09:24:23;;;;;;;12.52;1.85;;;4.90;99.90;;;;;;4976055;28;20073;-83
2023/03/15 09:26:49;;;;;;;10.65;1.63;;;5.40;99.90;;;;;;4972894;28;20053;-82
2023/03/15 09:29:15;;;;;;;14.85;2.15;;;5.10;99.90;;;;;;4971751;28;20393;-83
2023/03/15 09:31:40;;;;;;;11.27;1.73;;;5.10;99.90;;;;;;4972388;28;20108;-82
2023/03/15 09:34:06;;;;;;;11.40;1.73;;;5.20;99.90;;;;;;4972424;28;20077;-83
2023/03/15 09:36:32;;;;;;;11.82;1.60;;;5.20;99.90;;;;;;4971251;28;20050;-84
2023/03/15 09:39:00;;;;;;;11.00;1.35;;;5.30;99.90;;;;;;4956599;28;20046;-83
2023/03/15 09:41:37;;;;;;;9.00;1.20;;;5.30;99.90;;;;;;4956109;28;20057;-83
2023/03/15 09:44:18;;;;;;;13.38;2.10;;;5.40;99.90;;;;;;4956235;28;20046;-83
2023/03/15 09:47:00;;;;;;;12.48;1.83;;;5.50;99.90;;;;;;4955855;28;20100;-83
2023/03/15 09:49:32;;;;;;;7.03;0.95;;;5.60;99.90;;;;;;4955944;28;20108;-82
2023/03/15 09:52:07;;;;;;;12.73;1.85;;;5.70;99.90;;;;;;4971041;28;20046;-83
2023/03/15 09:54:48;;;;;;;8.52;1.70;;;5.80;99.90;;;;;;4956486;28;20050;-82
2023/03/15 09:57:20;;;;;;;11.82;2.13;;;5.90;99.90;;;;;;4971435;28;20129;-83
2023/03/15 09:59:51;;;;;;;12.40;2.10;;;5.80;99.90;;;;;;4956129;28;20039;-83
2023/03/15 10:02:28;;;;;;;12.00;2.65;;;5.80;99.90;;;;;;4956466;28;20446;-82
2023/03/15 10:05:06;;;;;;;8.75;1.30;;;5.90;99.90;;;;;;4970276;28;20050;-83
2023/03/15 10:07:33;;;;;;;6.95;1.52;;;5.90;99.90;;;;;;4955611;28;20049;-82
2023/03/15 10:10:00;;;;;;;9.77;1.58;;;6.00;99.90;;;;;;4959334;28;20074;-83
2023/03/15 10:12:32;;;;;;;13.55;1.85;;;6.20;99.90;;;;;;4952790;28;20136;-82
2023/03/15 10:15:17;;;;;;;14.27;2.30;;;6.10;99.90;;;;;;4937451;28;20043;-82
2023/03/15 10:17:47;;;;;;;9.98;2.00;;;6.20;99.90;;;;;;4952015;28;20373;-83
2023/03/15 10:20:20;;;;;;;8.20;1.38;;;6.20;99.90;;;;;;4936233;28;20038;-83
2023/03/15 10:22:50;;;;;;;9.98;1.17;;;6.30;99.90;;;;;;4952119;28;20062;-83
2023/03/15 10:25:18;;;;;;;10.23;1.73;;;6.90;99.90;;;;;;4951536;28;20499;-82
2023/03/15 10:27:51;;;;;;;14.38;1.65;;;6.60;99.90;;;;;;4935998;28;20082;-82
2023/03/15 10:30:24;;;;;;;10.02;1.63;;;6.50;99.90;;;;;;4969772;28;20047;-83
2023/03/15 10:32:55;;;;;;;8.30;1.45;;;6.60;99.90;;;;;;4951636;28;20051;-83
2023/03/15 10:35:21;;;;;;;10.57;1.67;;;6.80;99.90;;;;;;4934926;28;20054;-83
2023/03/15 10:37:47;;;;;;;11.90;1.55;;;6.90;99.90;;;;;;4952629;28;20061;-83
2023/03/15 10:40:15;;;;;;;12.55;1.80;;;7.00;99.90;;;;;;4935459;28;20096;-82
2023/03/15 10:42:43;;;;;;;11.20;2.00;;;7.00;99.90;;;;;;4951537;28;20055;-82
2023/03/15 10:45:17;;;;;;;10.45;1.60;;;7.00;99.90;;;;;;4967235;28;20157;-83
2023/03/15 10:47:43;;;;;;;8.80;1.38;;;7.10;99.90;;;;;;4952586;28;20434;-82
2023/03/15 10:50:24;;;;;;;15.20;1.70;;;7.40;99.90;;;;;;4935299;28;20066;-83
2023/03/15 10:52:55;;;;;;;7.20;1.35;;;7.00;99.90;;;;;;4951433;28;20057;-82
2023/03/15 10:55:31;;;;;;;18.60;1.70;;;7.00;99.90;;;;;;4938205;28;20092;-84
2023/03/15 10:57:58;;;;;;;7.32;1.17;;;7.10;99.90;;;;;;4971112;28;20417;-83
2023/03/15 11:00:30;;;;;;;13.27;1.58;;;7.30;99.90;;;;;;4970485;28;20136;-84
2023/03/15 11:03:03;;;;;;;14.57;1.77;;;7.50;99.90;;;;;;4970524;28;20081;-84
2023/03/15 11:05:41;;;;;;;9.93;1.50;;;7.70;99.90;;;;;;4970647;28;20100;-84
2023/03/15 11:08:13;;;;;;;10.25;2.15;;;7.80;99.90;;;;;;4969495;28;20061;-84
2023/03/15 11:10:39;;;;;;;10.45;1.23;;;7.90;99.90;;;;;;4953548;28;20074;-84
2023/03/15 11:13:23;;;;;;;9.32;1.48;;;7.80;99.90;;;;;;4954009;28;20088;-84
2023/03/15 11:16:04;;;;;;;9.88;1.67;;;7.90;99.90;;;;;;4970450;28;20082;-84
2023/03/15 11:18:34;;;;;;;6.22;1.20;;;7.90;99.90;;;;;;4971694;28;20438;-84
2023/03/15 11:21:04;;;;;;;11.00;1.58;;;7.80;99.90;;;;;;4953867;28;20053;-84
2023/03/15 11:23:40;;;;;;;7.55;1.60;;;7.80;99.90;;;;;;4970384;28;20054;-83
2023/03/15 11:26:14;;;;;;;7.32;1.00;;;7.70;99.90;;;;;;4954154;28;20133;-83
2023/03/15 11:28:47;;;;;;;17.25;2.17;;;7.60;99.90;;;;;;4970635;28;20047;-83
2023/03/15 11:31:13;;;;;;;11.45;1.92;;;7.90;99.90;;;;;;4970427;28;20053;-84
2023/03/15 11:33:55;;;;;;;11.90;1.42;;;7.80;99.90;;;;;;4954430;28;20502;-84
2023/03/15 11:36:23;;;;;;;6.40;1.33;;;7.90;99.90;;;;;;4969061;28;20046;-83
2023/03/15 11:38:52;;;;;;;10.25;1.55;;;7.90;99.90;;;;;;4954466;28;20510;-83
2023/03/15 11:41:50;;;;;;;8.90;1.55;;;7.80;99.90;;;;;;4969838;28;20046;-83
2023/03/15 11:44:31;;;;;;;8.50;1.23;;;7.70;99.90;;;;;;4970439;28;20058;-84
2023/03/15 11:47:09;;;;;;;9.43;0.98;;;7.60;99.90;;;;;;4954385;28;20054;-83
2023/03/15 11:49:49;;;;;;;10.75;1.60;;;7.50;99.90;;;;;;4969683;28;20125;-84
2023/03/15 11:52:18;;;;;;;12.98;1.50;;;7.40;99.90;;;;;;4970312;28;20050;-83
2023/03/15 11:54:45;;;;;;;10.00;1.10;;;7.40;99.90;;;;;;4954199;28;20097;-83
2023/03/15 11:57:27;;;;;;;12.05;1.50;;;7.50;99.90;;;;;;4969754;28;20054;-83
2023/03/15 11:59:54;;;;;;;13.05;1.60;;;7.60;99.90;;;;;;4970483;28;20056;-83
2023/03/15 12:02:20;;;;;;;12.85;1.70;;;7.70;99.90;;;;;;4969620;28;20525;-83
2023/03/15 12:04:48;;;;;;;8.60;1.80;;;7.80;99.90;;;;;;4970098;28;20053;-83
2023/03/15 12:07:14;;;;;;;9.32;1.15;;;7.80;99.90;;;;;;4969829;28;20046;-83
2023/03/15 12:09:48;;;;;;;12.30;1.60;;;7.90;99.90;;;;;;4960306;28;20487;-83
2023/03/15 12:12:22;;;;;;;11.60;1.70;;;8.00;99.90;;;;;;4951403;28;20050;-83
2023/03/15 12:15:00;;;;;;;7.57;1.25;;;8.00;99.90;;;;;;4967703;28;20092;-84
2023/03/15 12:17:25;;;;;;;7.75;1.42;;;8.00;99.90;;;;;;4957711;28;20046;-83
2023/03/15 12:20:07;;;;;;;8.43;1.33;;;7.90;99.90;;;;;;4955400;28;20411;-83
2023/03/15 12:22:34;;;;;;;13.98;1.48;;;7.90;99.90;;;;;;4971574;28;20042;-82
2023/03/15 12:25:14;;;;;;;7.63;1.38;;;7.90;99.90;;;;;;4955170;28;20143;-82
2023/03/15 12:27:50;;;;;;;6.25;1.10;;;8.10;99.90;;;;;;4971285;28;20050;-82
2023/03/15 12:30:21;;;;;;;8.40;1.20;;;8.30;99.90;;;;;;4954917;28;20113;-81
2023/03/15 12:32:51;;;;;;;6.40;1.13;;;8.30;99.90;;;;;;4970464;28;20035;-80
2023/03/15 12:35:20;;;;;;;7.95;1.63;;;8.20;99.90;;;;;;4951638;28;20050;-81
2023/03/15 12:37:48;;;;;;;10.38;1.30;;;8.20;99.90;;;;;;4956373;28;20480;-82
2023/03/15 12:40:15;;;;;;;10.70;1.77;;;8.20;99.90;;;;;;4952442;28;20494;-82
2023/03/15 12:42:40;;;;;;;7.47;1.20;;;8.10;99.90;;;;;;4956971;28;20426;-81
2023/03/15 12:45:37;;;;;;;8.15;1.20;;;8.00;99.90;;;;;;4956030;28;20054;-81
2023/03/15 12:48:11;;;;;;;10.80;2.25;;;7.80;99.90;;;;;;4955170;28;20395;-81
2023/03/15 12:50:49;;;;;;;5.55;1.33;;;7.80;99.90;;;;;;4937573;28;20125;-81
2023/03/15 12:53:40;;;;;;;10.93;1.50;;;7.90;99.90;;;;;;4950238;28;20070;-82
2023/03/15 12:56:25;;;;;;;6.40;1.05;;;7.90;99.90;;;;;;4965075;28;20525;-81